Time;durP1;ratioP1;P1;durP2;ratioP2;P2;SDS_P1;SDS_P2;PMS_P1;PMS_P2;Temp;Humidity;BMP_temperature;BMP_pressure;BME280_temperature;BME280_humidity;BME280_pressure;Samples;Min_cycle;Max_cycle;Signal;HPM_P1;HPM_P2
2022/08/23 00:01:55;;;;;;;7.38;3.67;;;;;;;;;;5066800;28;20473;-82
2022/08/23 00:04:22;;;;;;;4.57;3.65;;;;;;;;;;5072829;28;20021;-75
2022/08/23 00:06:49;;;;;;;7.85;5.68;;;;;;;;;;5073367;28;20543;-80
2022/08/23 00:09:16;;;;;;;16.73;11.23;;;;;;;;;;5062847;28;20017;-82
2022/08/23 00:11:44;;;;;;;13.52;9.88;;;;;;;;;;5066757;28;20028;-73
2022/08/23 00:14:21;;;;;;;8.98;5.20;;;;;;;;;;5073253;28;20032;-73
2022/08/23 00:16:47;;;;;;;8.93;4.13;;;;;;;;;;5063378;28;20104;-75
2022/08/23 00:19:15;;;;;;;4.80;3.67;;;;;;;;;;5072564;28;20565;-82
2022/08/23 00:21:42;;;;;;;4.43;3.65;;;;;;;;;;5069448;28;20141;-76
2022/08/23 00:24:10;;;;;;;5.32;3.63;;;;;;;;;;5072988;28;20021;-74
2022/08/23 00:26:48;;;;;;;5.50;4.13;;;;;;;;;;5077065;28;20052;-74
2022/08/23 00:29:15;;;;;;;7.80;4.47;;;;;;;;;;5071909;28;20090;-82
2022/08/23 00:31:41;;;;;;;4.47;3.78;;;;;;;;;;5070214;28;20021;-74
2022/08/23 00:34:07;;;;;;;7.28;3.78;;;;;;;;;;5072733;28;20489;-82
2022/08/23 00:36:33;;;;;;;4.40;3.65;;;;;;;;;;5072278;28;20031;-74
2022/08/23 00:39:00;;;;;;;5.45;3.88;;;;;;;;;;5077097;28;20432;-73
2022/08/23 00:41:26;;;;;;;6.80;3.75;;;;;;;;;;5070436;28;20020;-77
2022/08/23 00:49:28;;;;;;;4.72;3.90;;;;;;;;;;5063485;28;20031;-79
2022/08/23 00:52:01;;;;;;;4.50;3.75;;;;;;;;;;5067910;28;20028;-83
2022/08/23 00:54:29;;;;;;;4.20;3.53;;;;;;;;;;5073007;28;20032;-74
2022/08/23 00:56:56;;;;;;;5.47;3.60;;;;;;;;;;5072615;28;20527;-77
2022/08/23 00:59:23;;;;;;;6.57;3.85;;;;;;;;;;5073940;28;20105;-82
2022/08/23 01:01:49;;;;;;;4.57;3.67;;;;;;;;;;5072213;28;20107;-77
2022/08/23 01:04:16;;;;;;;5.93;4.07;;;;;;;;;;5069932;28;20036;-74
2022/08/23 01:06:53;;;;;;;5.28;4.10;;;;;;;;;;5072526;28;20096;-75
2022/08/23 01:09:21;;;;;;;6.80;4.05;;;;;;;;;;5077555;28;20477;-81
2022/08/23 01:11:58;;;;;;;6.43;4.25;;;;;;;;;;5078364;28;20042;-84
2022/08/23 01:14:31;;;;;;;5.38;4.47;;;;;;;;;;5069550;28;20039;-73
2022/08/23 01:17:02;;;;;;;6.88;3.90;;;;;;;;;;5070958;28;20438;-77
2022/08/23 01:19:41;;;;;;;9.07;4.60;;;;;;;;;;5066892;28;20517;-74
2022/08/23 01:22:17;;;;;;;4.65;4.18;;;;;;;;;;5057793;28;20486;-79
2022/08/23 01:24:44;;;;;;;7.40;4.00;;;;;;;;;;5070826;28;20032;-74
2022/08/23 01:27:11;;;;;;;7.30;4.63;;;;;;;;;;5070651;28;20021;-74
2022/08/23 01:29:38;;;;;;;6.78;3.97;;;;;;;;;;5066035;28;20034;-82
2022/08/23 01:32:04;;;;;;;4.72;3.92;;;;;;;;;;5071167;28;20107;-75
2022/08/23 01:34:30;;;;;;;7.47;4.35;;;;;;;;;;5064712;28;20063;-76
2022/08/23 01:36:58;;;;;;;5.65;4.35;;;;;;;;;;5066894;28;20445;-74
2022/08/23 01:39:24;;;;;;;6.85;4.60;;;;;;;;;;5072378;28;20051;-75
2022/08/23 01:41:50;;;;;;;7.80;4.78;;;;;;;;;;5078579;28;20040;-82
2022/08/23 01:44:16;;;;;;;7.22;5.30;;;;;;;;;;5071709;28;20109;-79
2022/08/23 01:46:44;;;;;;;6.50;4.82;;;;;;;;;;5069998;28;20027;-73
2022/08/23 01:49:11;;;;;;;9.90;5.32;;;;;;;;;;5071773;28;20028;-74
2022/08/23 01:51:37;;;;;;;6.55;4.70;;;;;;;;;;5069650;28;20019;-83
2022/08/23 01:54:03;;;;;;;6.35;4.80;;;;;;;;;;5069818;28;20393;-84
2022/08/23 01:56:30;;;;;;;6.72;4.72;;;;;;;;;;5070991;28;20044;-81
2022/08/23 01:58:56;;;;;;;5.65;4.65;;;;;;;;;;5055678;28;20029;-74
2022/08/23 02:01:24;;;;;;;6.45;4.50;;;;;;;;;;5077791;28;20373;-83
2022/08/23 02:03:50;;;;;;;6.43;4.40;;;;;;;;;;5078394;28;20050;-76
2022/08/23 02:06:17;;;;;;;6.10;4.60;;;;;;;;;;5075772;28;20103;-76
2022/08/23 02:09:01;;;;;;;6.03;4.38;;;;;;;;;;5065318;28;20032;-75
2022/08/23 02:11:34;;;;;;;7.20;4.32;;;;;;;;;;5074875;28;20016;-82
2022/08/23 02:14:01;;;;;;;7.90;5.10;;;;;;;;;;5072168;28;20040;-81
2022/08/23 02:16:32;;;;;;;5.32;4.60;;;;;;;;;;5068317;28;20124;-74
2022/08/23 02:19:01;;;;;;;6.75;4.32;;;;;;;;;;5073051;28;20043;-76
2022/08/23 02:21:30;;;;;;;6.00;4.80;;;;;;;;;;5063946;28;20025;-75
2022/08/23 02:23:56;;;;;;;8.68;4.55;;;;;;;;;;5077689;28;20035;-81
2022/08/23 02:26:23;;;;;;;5.45;4.45;;;;;;;;;;5073828;28;20020;-73
2022/08/23 02:28:52;;;;;;;10.63;4.82;;;;;;;;;;5072746;28;20028;-74
2022/08/23 02:31:19;;;;;;;8.98;6.15;;;;;;;;;;5075185;28;20044;-74
2022/08/23 02:33:47;;;;;;;9.45;6.70;;;;;;;;;;5076807;28;20520;-81
2022/08/23 02:36:13;;;;;;;11.13;6.63;;;;;;;;;;5070975;28;20044;-77
2022/08/23 02:38:40;;;;;;;9.80;7.20;;;;;;;;;;5073422;28;20116;-74
2022/08/23 02:41:06;;;;;;;11.90;7.15;;;;;;;;;;5071549;28;20028;-74
2022/08/23 02:43:32;;;;;;;12.52;7.30;;;;;;;;;;5075406;28;20541;-74
2022/08/23 02:45:59;;;;;;;10.30;8.10;;;;;;;;;;5072359;28;20367;-75
2022/08/23 02:48:25;;;;;;;10.35;7.28;;;;;;;;;;5073664;28;20035;-75
2022/08/23 02:50:51;;;;;;;16.02;7.53;;;;;;;;;;5068093;28;20078;-82
2022/08/23 02:53:17;;;;;;;12.63;7.10;;;;;;;;;;5074967;28;20036;-83
2022/08/23 02:55:44;;;;;;;11.57;6.90;;;;;;;;;;5073261;28;20016;-81
2022/08/23 02:58:10;;;;;;;10.63;6.78;;;;;;;;;;5074651;28;20104;-79
2022/08/23 03:00:37;;;;;;;8.75;6.65;;;;;;;;;;5068884;28;20037;-83
2022/08/23 03:03:04;;;;;;;9.35;6.28;;;;;;;;;;5072314;28;20056;-73
2022/08/23 03:05:30;;;;;;;10.63;7.07;;;;;;;;;;5078345;28;20103;-77
2022/08/23 03:07:56;;;;;;;16.13;7.20;;;;;;;;;;5068264;28;20025;-81
2022/08/23 03:10:23;;;;;;;11.40;7.63;;;;;;;;;;5068005;28;20584;-76
2022/08/23 03:12:49;;;;;;;10.57;7.15;;;;;;;;;;5069056;28;20106;-76
2022/08/23 03:15:15;;;;;;;9.55;7.65;;;;;;;;;;5071832;28;20513;-74
2022/08/23 03:17:41;;;;;;;12.88;8.13;;;;;;;;;;5069418;28;20444;-78
2022/08/23 03:20:08;;;;;;;11.32;8.30;;;;;;;;;;5073315;28;20025;-79
2022/08/23 03:22:34;;;;;;;12.65;8.90;;;;;;;;;;5073968;28;20023;-81
2022/08/23 03:25:00;;;;;;;12.38;9.00;;;;;;;;;;5074146;28;20044;-82
2022/08/23 03:27:26;;;;;;;12.65;9.70;;;;;;;;;;5074714;28;20024;-75
2022/08/23 03:29:53;;;;;;;13.23;9.65;;;;;;;;;;5074178;28;20432;-76
2022/08/23 03:32:19;;;;;;;12.05;9.32;;;;;;;;;;5072902;28;20444;-83
2022/08/23 03:34:45;;;;;;;14.02;10.63;;;;;;;;;;5073239;28;20546;-79
2022/08/23 03:37:11;;;;;;;14.63;10.63;;;;;;;;;;5074184;28;20382;-84
2022/08/23 03:39:37;;;;;;;14.75;11.05;;;;;;;;;;5073998;28;20048;-77
2022/08/23 03:42:03;;;;;;;13.93;10.68;;;;;;;;;;5073323;28;20020;-84
2022/08/23 03:44:29;;;;;;;14.90;11.02;;;;;;;;;;5072346;28;20038;-83
2022/08/23 03:46:56;;;;;;;15.40;11.27;;;;;;;;;;5071096;28;20051;-83
2022/08/23 03:49:22;;;;;;;15.13;11.25;;;;;;;;;;5072663;28;20179;-75
2022/08/23 03:51:48;;;;;;;18.23;11.68;;;;;;;;;;5072102;28;20029;-77
2022/08/23 03:54:14;;;;;;;14.80;11.05;;;;;;;;;;5073482;28;20126;-74
2022/08/23 03:56:49;;;;;;;16.10;10.82;;;;;;;;;;5070499;28;20124;-73
2022/08/23 03:59:15;;;;;;;16.25;11.63;;;;;;;;;;5072913;28;20513;-76
2022/08/23 04:01:42;;;;;;;15.88;11.07;;;;;;;;;;5061212;28;20063;-76
2022/08/23 04:04:09;;;;;;;14.18;10.68;;;;;;;;;;5072021;28;20025;-77
2022/08/23 04:06:35;;;;;;;13.90;11.57;;;;;;;;;;5073319;28;20107;-78
2022/08/23 04:09:02;;;;;;;14.15;11.80;;;;;;;;;;5073554;28;20032;-80
2022/08/23 04:11:28;;;;;;;13.50;11.25;;;;;;;;;;5072211;28;20016;-81
2022/08/23 04:13:54;;;;;;;14.40;11.40;;;;;;;;;;5072053;28;20089;-74
2022/08/23 04:16:21;;;;;;;15.13;11.77;;;;;;;;;;5071784;28;20033;-76
2022/08/23 04:18:48;;;;;;;16.65;11.98;;;;;;;;;;5072819;28;20104;-75
2022/08/23 04:21:16;;;;;;;14.52;11.65;;;;;;;;;;5072961;28;20103;-76
2022/08/23 04:23:42;;;;;;;15.27;11.85;;;;;;;;;;5073851;28;20044;-79
2022/08/23 04:26:08;;;;;;;13.57;11.98;;;;;;;;;;5072825;28;20024;-85
2022/08/23 04:28:35;;;;;;;15.90;12.15;;;;;;;;;;5072228;28;20043;-81
2022/08/23 04:31:02;;;;;;;15.43;11.88;;;;;;;;;;5067923;28;20020;-74
2022/08/23 04:33:32;;;;;;;15.52;12.10;;;;;;;;;;5066924;28;20036;-80
2022/08/23 04:35:59;;;;;;;17.98;12.50;;;;;;;;;;5070441;28;20024;-79
2022/08/23 04:38:25;;;;;;;15.00;12.90;;;;;;;;;;5055740;28;20029;-76
2022/08/23 04:43:36;;;;;;;17.33;12.40;;;;;;;;;;5061381;28;20032;-82
2022/08/23 04:46:04;;;;;;;17.05;13.52;;;;;;;;;;5073599;28;20148;-66
2022/08/23 04:48:30;;;;;;;18.65;13.23;;;;;;;;;;5051636;28;20031;-66
2022/08/23 04:50:56;;;;;;;18.73;14.02;;;;;;;;;;5075921;28;20020;-67
2022/08/23 04:53:22;;;;;;;18.10;13.80;;;;;;;;;;5072334;28;20062;-71
2022/08/23 04:55:50;;;;;;;18.17;14.48;;;;;;;;;;5073175;28;20019;-68
2022/08/23 04:58:17;;;;;;;20.45;14.80;;;;;;;;;;5072357;28;20058;-83
2022/08/23 05:00:43;;;;;;;16.73;12.85;;;;;;;;;;5067113;28;20040;-86
2022/08/23 05:03:11;;;;;;;22.08;14.00;;;;;;;;;;5076350;28;20127;-80
2022/08/23 05:05:37;;;;;;;17.65;13.85;;;;;;;;;;5075479;28;20066;-76
2022/08/23 05:08:03;;;;;;;17.60;13.77;;;;;;;;;;5074991;28;20021;-80
2022/08/23 05:10:30;;;;;;;20.45;13.88;;;;;;;;;;5072364;28;20077;-76
2022/08/23 05:12:56;;;;;;;18.02;13.63;;;;;;;;;;5070903;28;20102;-71
2022/08/23 05:15:22;;;;;;;19.65;14.35;;;;;;;;;;5071835;28;20053;-71
2022/08/23 05:17:48;;;;;;;19.60;13.73;;;;;;;;;;5060358;28;20029;-72
2022/08/23 05:20:15;;;;;;;21.00;13.82;;;;;;;;;;5076923;28;20028;-73
2022/08/23 05:22:41;;;;;;;19.42;14.55;;;;;;;;;;5069897;28;20059;-75
2022/08/23 05:25:08;;;;;;;18.05;13.63;;;;;;;;;;5066139;28;20028;-74
2022/08/23 05:27:34;;;;;;;18.35;13.68;;;;;;;;;;5076523;28;20105;-70
2022/08/23 05:30:01;;;;;;;20.30;14.48;;;;;;;;;;5069812;28;20040;-78
2022/08/23 05:32:27;;;;;;;19.30;13.20;;;;;;;;;;5070512;28;20033;-84
2022/08/23 05:34:53;;;;;;;23.90;13.50;;;;;;;;;;5060539;28;20033;-83
2022/08/23 05:37:19;;;;;;;20.30;13.20;;;;;;;;;;5081514;28;20106;-81
2022/08/23 05:39:45;;;;;;;16.02;13.00;;;;;;;;;;5076617;28;20490;-88
2022/08/23 05:42:13;;;;;;;16.77;12.88;;;;;;;;;;5075009;28;20013;-81
2022/08/23 05:44:39;;;;;;;15.02;11.70;;;;;;;;;;5078535;28;20016;-82
2022/08/23 05:47:06;;;;;;;16.95;11.85;;;;;;;;;;5078308;28;20079;-85
2022/08/23 05:49:32;;;;;;;15.07;11.77;;;;;;;;;;5077137;28;20115;-82
2022/08/23 05:51:58;;;;;;;13.60;11.20;;;;;;;;;;5081036;28;20085;-88
2022/08/23 05:54:24;;;;;;;14.80;10.98;;;;;;;;;;5077762;28;20033;-82
2022/08/23 05:56:50;;;;;;;12.95;10.35;;;;;;;;;;5068187;28;20020;-81
2022/08/23 05:59:18;;;;;;;13.73;10.10;;;;;;;;;;5084073;28;20143;-80
2022/08/23 06:01:44;;;;;;;12.55;10.73;;;;;;;;;;5076991;28;20028;-82
2022/08/23 06:04:11;;;;;;;13.23;11.32;;;;;;;;;;5069667;28;20039;-84
2022/08/23 06:06:38;;;;;;;12.73;10.55;;;;;;;;;;5083358;28;20024;-82
2022/08/23 06:09:05;;;;;;;13.25;10.63;;;;;;;;;;5067726;28;20028;-82
2022/08/23 06:11:31;;;;;;;12.25;9.40;;;;;;;;;;5078922;28;20070;-85
2022/08/23 06:14:02;;;;;;;11.80;9.20;;;;;;;;;;5078612;28;20078;-82
2022/08/23 06:16:29;;;;;;;12.55;9.80;;;;;;;;;;5069174;28;20056;-83
2022/08/23 06:18:56;;;;;;;13.77;9.90;;;;;;;;;;5079050;28;20367;-80
2022/08/23 06:21:23;;;;;;;12.25;9.98;;;;;;;;;;5076891;28;20028;-79
2022/08/23 06:23:50;;;;;;;12.63;10.32;;;;;;;;;;5070733;28;20486;-80
2022/08/23 06:26:16;;;;;;;13.85;10.07;;;;;;;;;;5059805;28;20051;-79
2022/08/23 06:28:42;;;;;;;15.68;9.82;;;;;;;;;;5065881;28;20075;-79
2022/08/23 06:31:09;;;;;;;12.48;10.18;;;;;;;;;;5079625;28;20037;-80
2022/08/23 06:33:36;;;;;;;20.55;11.75;;;;;;;;;;5073443;28;20036;-77
2022/08/23 06:36:13;;;;;;;17.88;12.82;;;;;;;;;;5071595;28;20503;-77
2022/08/23 06:38:44;;;;;;;20.80;12.00;;;;;;;;;;5074099;28;20028;-75
2022/08/23 06:41:12;;;;;;;18.05;13.30;;;;;;;;;;5072795;28;20036;-78
2022/08/23 06:43:39;;;;;;;14.95;10.75;;;;;;;;;;5068843;28;20103;-80
2022/08/23 06:46:08;;;;;;;14.55;11.40;;;;;;;;;;5076124;28;20024;-83
2022/08/23 06:48:34;;;;;;;11.02;9.40;;;;;;;;;;5076531;28;20031;-81
2022/08/23 06:51:00;;;;;;;12.80;9.73;;;;;;;;;;5073078;28;20021;-81
2022/08/23 06:53:26;;;;;;;10.90;8.80;;;;;;;;;;5081429;28;20028;-78
2022/08/23 06:55:53;;;;;;;12.38;8.27;;;;;;;;;;5080756;28;20075;-77
2022/08/23 06:58:21;;;;;;;10.18;7.43;;;;;;;;;;5083033;28;20048;-83
2022/08/23 07:00:47;;;;;;;9.68;6.75;;;;;;;;;;5064587;28;20040;-75
2022/08/23 07:03:13;;;;;;;8.77;7.70;;;;;;;;;;5071949;28;20032;-76
2022/08/23 07:05:39;;;;;;;11.00;8.90;;;;;;;;;;5072588;28;20025;-76
2022/08/23 07:08:05;;;;;;;12.27;9.73;;;;;;;;;;5077924;28;20024;-83
2022/08/23 07:10:32;;;;;;;13.35;9.82;;;;;;;;;;5073371;28;20044;-82
2022/08/23 07:12:59;;;;;;;22.05;13.02;;;;;;;;;;5074822;28;20078;-79
2022/08/23 07:15:25;;;;;;;23.55;13.75;;;;;;;;;;5073215;28;20028;-82
2022/08/23 07:17:51;;;;;;;21.98;14.05;;;;;;;;;;5078654;28;20620;-80
2022/08/23 07:20:20;;;;;;;20.77;13.75;;;;;;;;;;5064768;28;20064;-81
2022/08/23 07:22:49;;;;;;;21.85;13.43;;;;;;;;;;5073743;28;20485;-69
2022/08/23 07:25:15;;;;;;;19.55;13.90;;;;;;;;;;5071546;28;20055;-74
2022/08/23 07:27:41;;;;;;;18.40;12.85;;;;;;;;;;5066573;28;20024;-70
2022/08/23 07:30:07;;;;;;;16.13;11.98;;;;;;;;;;5074513;28;20145;-78
2022/08/23 07:33:10;;;;;;;15.52;11.73;;;;;;;;;;5071345;28;20521;-73
2022/08/23 07:35:45;;;;;;;14.00;10.85;;;;;;;;;;5079438;28;20524;-77
2022/08/23 07:38:11;;;;;;;16.25;11.02;;;;;;;;;;5073149;28;20396;-78
2022/08/23 07:40:45;;;;;;;15.95;11.10;;;;;;;;;;5081801;28;20396;-77
2022/08/23 07:43:11;;;;;;;25.15;18.50;;;;;;;;;;5075779;28;20024;-77
2022/08/23 07:45:39;;;;;;;19.02;12.43;;;;;;;;;;5070274;28;20017;-76
2022/08/23 07:48:05;;;;;;;21.60;12.23;;;;;;;;;;5064490;28;20013;-77
2022/08/23 07:50:39;;;;;;;20.88;12.63;;;;;;;;;;5068186;28;20424;-82
2022/08/23 07:53:07;;;;;;;22.92;13.80;;;;;;;;;;5081209;28;20025;-77
2022/08/23 07:55:34;;;;;;;23.83;14.48;;;;;;;;;;5079172;28;20134;-77
2022/08/23 07:58:04;;;;;;;26.38;14.18;;;;;;;;;;5069490;28;20025;-70
2022/08/23 08:00:37;;;;;;;23.73;15.77;;;;;;;;;;5064212;28;20048;-80
2022/08/23 08:03:10;;;;;;;25.50;15.32;;;;;;;;;;5066203;28;20104;-73
2022/08/23 08:05:36;;;;;;;21.13;14.45;;;;;;;;;;5074006;28;20028;-83
2022/08/23 08:08:05;;;;;;;22.10;13.38;;;;;;;;;;5072000;28;20058;-71
2022/08/23 08:10:32;;;;;;;21.77;12.75;;;;;;;;;;5072994;28;20037;-82
2022/08/23 08:12:58;;;;;;;22.52;13.35;;;;;;;;;;5074841;28;20025;-77
2022/08/23 08:15:27;;;;;;;18.88;12.57;;;;;;;;;;5075896;28;20056;-69
2022/08/23 08:17:53;;;;;;;20.38;12.32;;;;;;;;;;5070277;28;20433;-73
2022/08/23 08:20:20;;;;;;;16.42;11.30;;;;;;;;;;5062626;28;20478;-80
2022/08/23 08:22:46;;;;;;;21.50;12.00;;;;;;;;;;5079412;28;20021;-82
2022/08/23 08:25:33;;;;;;;19.33;11.02;;;;;;;;;;5063198;28;20081;-76
2022/08/23 08:27:59;;;;;;;16.95;10.73;;;;;;;;;;5068227;28;20475;-78
2022/08/23 08:30:25;;;;;;;15.13;10.00;;;;;;;;;;5071987;28;20056;-78
2022/08/23 08:32:51;;;;;;;13.25;8.95;;;;;;;;;;5071944;28;20029;-78
2022/08/23 08:35:17;;;;;;;13.98;9.40;;;;;;;;;;5071055;28;20041;-76
2022/08/23 08:37:43;;;;;;;15.40;9.35;;;;;;;;;;5067507;28;20021;-78
2022/08/23 08:40:12;;;;;;;14.82;9.73;;;;;;;;;;5081458;28;20021;-78
2022/08/23 08:43:04;;;;;;;16.75;10.20;;;;;;;;;;5071856;28;20024;-78
2022/08/23 08:45:52;;;;;;;19.23;9.80;;;;;;;;;;5066707;28;20021;-77
2022/08/23 08:48:23;;;;;;;13.77;9.07;;;;;;;;;;5067812;28;20139;-76
2022/08/23 08:50:55;;;;;;;11.57;9.48;;;;;;;;;;5065917;28;20035;-78
2022/08/23 08:53:37;;;;;;;14.68;9.90;;;;;;;;;;5072380;28;20070;-78
2022/08/23 08:56:29;;;;;;;13.77;9.75;;;;;;;;;;5072837;28;20029;-79
2022/08/23 08:59:16;;;;;;;12.27;9.38;;;;;;;;;;5070266;28;20017;-75
2022/08/23 09:01:42;;;;;;;14.88;9.93;;;;;;;;;;5006204;28;20037;-76
2022/08/23 09:04:10;;;;;;;17.10;10.43;;;;;;;;;;5009865;28;20042;-77
2022/08/23 09:06:42;;;;;;;15.73;10.48;;;;;;;;;;4998896;28;20041;-77
2022/08/23 09:09:20;;;;;;;12.93;9.63;;;;;;;;;;5009895;28;20507;-77
2022/08/23 09:11:57;;;;;;;13.65;10.50;;;;;;;;;;5014717;28;20034;-75
2022/08/23 09:14:39;;;;;;;16.40;10.05;;;;;;;;;;4981927;28;20031;-78
2022/08/23 09:17:16;;;;;;;12.38;10.00;;;;;;;;;;4990890;28;20463;-77
2022/08/23 09:19:43;;;;;;;13.82;10.25;;;;;;;;;;5006776;28;20037;-78
2022/08/23 09:22:20;;;;;;;12.30;10.13;;;;;;;;;;5014558;28;21083;-77
2022/08/23 09:24:46;;;;;;;11.77;9.30;;;;;;;;;;5010290;28;20029;-79
2022/08/23 09:27:12;;;;;;;12.85;10.23;;;;;;;;;;5009723;28;20026;-77
2022/08/23 09:29:40;;;;;;;13.88;11.00;;;;;;;;;;5008816;28;20030;-75
2022/08/23 09:32:24;;;;;;;13.30;10.52;;;;;;;;;;4993744;28;20073;-78
2022/08/23 09:34:51;;;;;;;16.98;11.05;;;;;;;;;;5010377;28;20045;-77
2022/08/23 09:37:23;;;;;;;14.05;10.35;;;;;;;;;;5010152;28;20053;-74
2022/08/23 09:39:51;;;;;;;12.20;10.25;;;;;;;;;;5061715;28;20060;-78
2022/08/23 09:42:32;;;;;;;13.77;10.77;;;;;;;;;;5061772;28;20025;-76
2022/08/23 09:44:59;;;;;;;14.85;10.40;;;;;;;;;;5068710;28;20083;-76
2022/08/23 09:47:32;;;;;;;13.77;10.38;;;;;;;;;;5070395;28;20070;-77
2022/08/23 09:50:06;;;;;;;13.02;10.38;;;;;;;;;;5068361;28;20025;-79
2022/08/23 09:52:33;;;;;;;12.13;10.13;;;;;;;;;;5071578;28;20052;-78
2022/08/23 09:55:01;;;;;;;12.95;10.48;;;;;;;;;;5071956;28;20033;-78
2022/08/23 09:57:29;;;;;;;14.23;10.52;;;;;;;;;;5071577;28;20031;-79
2022/08/23 10:00:00;;;;;;;11.65;10.07;;;;;;;;;;5073091;28;20053;-78
2022/08/23 10:02:29;;;;;;;15.65;10.52;;;;;;;;;;5065356;28;20036;-78
2022/08/23 10:05:04;;;;;;;12.52;11.20;;;;;;;;;;5064730;28;20029;-76
2022/08/23 10:07:34;;;;;;;12.50;11.07;;;;;;;;;;5062764;28;20461;-75
2022/08/23 10:10:23;;;;;;;12.48;10.23;;;;;;;;;;5071244;28;20050;-78
2022/08/23 10:12:49;;;;;;;12.48;11.18;;;;;;;;;;5071539;28;20028;-78
2022/08/23 10:15:16;;;;;;;11.70;10.50;;;;;;;;;;5071644;28;20033;-78
2022/08/23 10:18:02;;;;;;;11.98;10.45;;;;;;;;;;5071129;28;20028;-77
2022/08/23 10:20:36;;;;;;;18.92;10.93;;;;;;;;;;5064465;28;20033;-78
2022/08/23 10:23:08;;;;;;;12.70;11.27;;;;;;;;;;5062313;28;20033;-79
2022/08/23 10:25:53;;;;;;;18.67;11.25;;;;;;;;;;5070806;28;20028;-78
2022/08/23 10:34:49;;;;;;;13.75;11.15;;;;;;;;;;5048406;28;20167;-86
2022/08/23 10:37:48;;;;;;;14.00;10.73;;;;;;;;;;5036787;28;20469;-71
2022/08/23 10:40:24;;;;;;;12.63;10.57;;;;;;;;;;5042374;28;20032;-84
2022/08/23 10:43:09;;;;;;;14.23;11.30;;;;;;;;;;5060147;28;20031;-81
2022/08/23 10:45:36;;;;;;;15.40;10.50;;;;;;;;;;5059910;28;20048;-81
2022/08/23 10:48:05;;;;;;;12.32;11.02;;;;;;;;;;5043740;28;20029;-77
2022/08/23 10:50:41;;;;;;;13.95;11.32;;;;;;;;;;5060041;28;20029;-78
2022/08/23 10:53:10;;;;;;;14.18;10.20;;;;;;;;;;5052840;28;20123;-80
2022/08/23 10:55:53;;;;;;;15.82;10.15;;;;;;;;;;5061064;28;20048;-83
2022/08/23 10:58:24;;;;;;;12.07;10.05;;;;;;;;;;5034208;28;20024;-82
2022/08/23 11:00:51;;;;;;;12.55;9.30;;;;;;;;;;5053997;28;20574;-80
2022/08/23 11:03:26;;;;;;;10.65;8.55;;;;;;;;;;5031581;28;20415;-85
2022/08/23 11:06:10;;;;;;;14.05;9.93;;;;;;;;;;5046227;28;20112;-84
2022/08/23 11:08:42;;;;;;;13.23;9.70;;;;;;;;;;5046934;28;20037;-77
2022/08/23 11:11:30;;;;;;;9.35;8.35;;;;;;;;;;5063332;28;20512;-79
2022/08/23 11:14:00;;;;;;;11.45;8.27;;;;;;;;;;5012273;28;20140;-78
2022/08/23 11:16:29;;;;;;;12.43;7.80;;;;;;;;;;5004437;28;20049;-75
2022/08/23 11:18:56;;;;;;;9.27;8.25;;;;;;;;;;5004967;28;20046;-80
2022/08/23 11:21:32;;;;;;;8.82;7.93;;;;;;;;;;5005034;28;20033;-83
2022/08/23 11:23:58;;;;;;;15.02;7.82;;;;;;;;;;4999020;28;20135;-85
2022/08/23 11:26:32;;;;;;;13.18;8.18;;;;;;;;;;5014830;28;20111;-82
2022/08/23 11:29:10;;;;;;;10.55;7.85;;;;;;;;;;5017669;28;20383;-73
2022/08/23 11:31:49;;;;;;;11.90;7.88;;;;;;;;;;4997518;28;20503;-76
2022/08/23 11:34:20;;;;;;;15.77;8.93;;;;;;;;;;5009312;28;20093;-79
2022/08/23 11:37:05;;;;;;;12.15;8.10;;;;;;;;;;5013945;28;20022;-81
2022/08/23 11:39:51;;;;;;;9.20;7.15;;;;;;;;;;5022678;28;20119;-76
2022/08/23 11:42:18;;;;;;;22.58;8.77;;;;;;;;;;5024655;28;20033;-77
2022/08/23 11:44:47;;;;;;;13.15;7.13;;;;;;;;;;5017854;28;20057;-78
2022/08/23 11:47:14;;;;;;;8.57;6.85;;;;;;;;;;5011795;28;20033;-75
2022/08/23 11:49:43;;;;;;;7.85;6.80;;;;;;;;;;5017130;28;20050;-78
2022/08/23 11:52:15;;;;;;;10.43;6.55;;;;;;;;;;5075466;28;20032;-78
2022/08/23 11:54:56;;;;;;;9.75;6.63;;;;;;;;;;5080873;28;20032;-77
2022/08/23 11:57:41;;;;;;;9.07;6.32;;;;;;;;;;5073008;28;20128;-79
2022/08/23 12:00:10;;;;;;;7.70;6.25;;;;;;;;;;5072664;28;20105;-72
2022/08/23 12:02:46;;;;;;;7.68;6.82;;;;;;;;;;5079364;28;20177;-78
2022/08/23 12:05:21;;;;;;;8.20;5.55;;;;;;;;;;5073586;28;20021;-79
2022/08/23 12:07:52;;;;;;;7.55;6.05;;;;;;;;;;5077083;28;20035;-79
2022/08/23 12:10:37;;;;;;;11.15;5.38;;;;;;;;;;5077643;28;20050;-80
2022/08/23 12:13:18;;;;;;;10.57;8.60;;;;;;;;;;5069596;28;20389;-80
2022/08/23 12:16:03;;;;;;;15.35;9.75;;;;;;;;;;5070811;28;20082;-72
2022/08/23 12:18:31;;;;;;;8.40;5.97;;;;;;;;;;5063957;28;20027;-84
2022/08/23 12:20:58;;;;;;;8.82;5.85;;;;;;;;;;5070291;28;20064;-73
2022/08/23 12:23:24;;;;;;;6.55;5.50;;;;;;;;;;5071046;28;20054;-81
2022/08/23 12:26:13;;;;;;;7.88;5.50;;;;;;;;;;5070647;28;20055;-82
2022/08/23 12:28:45;;;;;;;10.00;5.65;;;;;;;;;;5071010;28;20043;-72
2022/08/23 12:31:23;;;;;;;17.90;7.20;;;;;;;;;;5072748;28;20020;-81
2022/08/23 12:33:58;;;;;;;5.88;5.15;;;;;;;;;;5071154;28;20123;-86
2022/08/23 12:36:38;;;;;;;6.95;5.10;;;;;;;;;;5065958;28;20036;-80
2022/08/23 12:39:07;;;;;;;6.82;5.70;;;;;;;;;;5062234;28;20138;-84
2022/08/23 12:41:48;;;;;;;8.90;5.78;;;;;;;;;;5066596;28;20029;-83
2022/08/23 12:44:35;;;;;;;6.07;5.43;;;;;;;;;;5072552;28;20111;-86
2022/08/23 12:47:31;;;;;;;11.50;5.72;;;;;;;;;;5068335;28;20064;-83
2022/08/23 12:49:59;;;;;;;6.30;4.90;;;;;;;;;;5009752;28;20129;-82
2022/08/23 12:52:57;;;;;;;7.80;5.13;;;;;;;;;;5009423;28;20036;-82
2022/08/23 12:55:37;;;;;;;8.82;5.20;;;;;;;;;;4992248;28;20038;-80
2022/08/23 12:58:15;;;;;;;5.97;4.78;;;;;;;;;;4990514;28;20056;-83
2022/08/23 13:01:10;;;;;;;6.18;4.95;;;;;;;;;;5009028;28;20158;-79
2022/08/23 13:03:46;;;;;;;6.13;4.80;;;;;;;;;;5009567;28;20655;-82
2022/08/23 13:06:20;;;;;;;11.00;4.78;;;;;;;;;;5008809;28;20061;-79
2022/08/23 13:09:21;;;;;;;8.18;4.88;;;;;;;;;;4997464;28;20080;-83
2022/08/23 13:11:54;;;;;;;12.98;5.13;;;;;;;;;;4932513;29;20031;-82
2022/08/23 13:14:34;;;;;;;8.80;5.38;;;;;;;;;;4930730;29;20053;-83
2022/08/23 13:17:35;;;;;;;6.65;4.65;;;;;;;;;;4915770;29;20028;-82
2022/08/23 13:20:03;;;;;;;6.57;4.85;;;;;;;;;;4861919;29;20124;-83
2022/08/23 13:22:33;;;;;;;6.65;4.53;;;;;;;;;;4859367;29;20041;-82
2022/08/23 13:25:14;;;;;;;7.55;4.20;;;;;;;;;;4860050;29;20073;-72
2022/08/23 13:28:01;;;;;;;6.60;4.90;;;;;;;;;;4929015;29;20036;-81
2022/08/23 13:30:29;;;;;;;11.55;4.68;;;;;;;;;;4927258;29;20379;-77
2022/08/23 13:33:07;;;;;;;11.57;7.15;;;;;;;;;;4913843;29;20107;-77
2022/08/23 13:35:37;;;;;;;7.47;4.43;;;;;;;;;;4904657;29;20498;-78
2022/08/23 13:38:06;;;;;;;7.70;5.05;;;;;;;;;;4931749;29;20024;-75
2022/08/23 13:40:38;;;;;;;8.40;4.25;;;;;;;;;;4930338;28;20043;-79
2022/08/23 13:43:06;;;;;;;6.63;4.17;;;;;;;;;;4926078;29;20095;-78
2022/08/23 13:45:33;;;;;;;8.27;4.55;;;;;;;;;;4928496;29;20176;-70
2022/08/23 13:48:09;;;;;;;8.10;4.43;;;;;;;;;;4986715;28;20045;-79
2022/08/23 13:50:41;;;;;;;5.75;4.07;;;;;;;;;;4988319;28;20026;-85
2022/08/23 13:53:08;;;;;;;8.07;5.00;;;;;;;;;;5002669;28;20080;-84
2022/08/23 13:55:46;;;;;;;8.45;4.82;;;;;;;;;;5033932;28;20132;-84
2022/08/23 13:58:14;;;;;;;9.30;4.82;;;;;;;;;;5072324;28;20024;-78
2022/08/23 14:00:57;;;;;;;9.30;4.30;;;;;;;;;;5080466;28;20095;-80
2022/08/23 14:03:24;;;;;;;11.75;4.55;;;;;;;;;;5037443;28;20035;-81
2022/08/23 14:05:53;;;;;;;8.15;3.80;;;;;;;;;;5082461;28;20025;-68
2022/08/23 14:08:19;;;;;;;7.10;3.97;;;;;;;;;;5074287;28;20029;-81
2022/08/23 14:10:46;;;;;;;4.75;3.67;;;;;;;;;;5073024;28;20092;-76
2022/08/23 14:13:12;;;;;;;6.32;4.00;;;;;;;;;;5083272;28;20039;-83
2022/08/23 14:15:42;;;;;;;6.97;3.80;;;;;;;;;;5077210;28;20036;-74
2022/08/23 14:18:09;;;;;;;7.85;4.45;;;;;;;;;;5076606;28;20035;-76
2022/08/23 14:20:35;;;;;;;16.48;4.63;;;;;;;;;;5063586;28;20099;-75
2022/08/23 14:23:01;;;;;;;6.80;3.97;;;;;;;;;;5080039;28;20029;-78
2022/08/23 14:25:27;;;;;;;9.23;3.92;;;;;;;;;;5078768;28;20494;-78
2022/08/23 14:27:53;;;;;;;5.22;3.47;;;;;;;;;;5084477;28;20021;-78
2022/08/23 14:30:27;;;;;;;9.52;4.15;;;;;;;;;;5074509;28;20103;-75
2022/08/23 14:32:53;;;;;;;6.10;3.67;;;;;;;;;;5085640;28;20036;-74
2022/08/23 14:35:19;;;;;;;5.82;3.80;;;;;;;;;;5074902;28;20186;-74
2022/08/23 14:37:45;;;;;;;9.73;4.15;;;;;;;;;;5079696;28;20033;-70
2022/08/23 14:40:12;;;;;;;6.38;3.90;;;;;;;;;;5090483;28;20115;-74
2022/08/23 14:42:38;;;;;;;8.75;3.97;;;;;;;;;;5088838;28;20074;-70
2022/08/23 14:45:04;;;;;;;5.82;4.15;;;;;;;;;;5079283;28;20135;-74
2022/08/23 14:47:30;;;;;;;4.88;3.95;;;;;;;;;;5082558;28;20106;-70
2022/08/23 14:49:56;;;;;;;5.82;4.47;;;;;;;;;;5074889;28;20067;-71
2022/08/23 14:52:23;;;;;;;14.20;5.75;;;;;;;;;;5078759;28;20094;-77
2022/08/23 14:54:49;;;;;;;11.00;4.88;;;;;;;;;;5071815;28;20025;-77
2022/08/23 14:57:17;;;;;;;6.05;3.80;;;;;;;;;;5077070;28;20067;-76
2022/08/23 14:59:43;;;;;;;6.45;4.22;;;;;;;;;;5074417;28;20020;-76
2022/08/23 15:02:11;;;;;;;5.57;3.70;;;;;;;;;;5084073;28;20054;-76